sensor_id;sensor_type;location;lat;lon;timestamp;P1;durP1;ratioP1;P2;durP2;ratioP2
35612;SDS011;22054;51.646;7.078;2022-11-20T00:01:26;34.35;;;18.60;;
35612;SDS011;22054;51.646;7.078;2022-11-20T00:03:54;33.85;;;17.98;;
35612;SDS011;22054;51.646;7.078;2022-11-20T00:06:21;28.65;;;17.60;;
35612;SDS011;22054;51.646;7.078;2022-11-20T00:08:48;30.27;;;16.92;;
35612;SDS011;22054;51.646;7.078;2022-11-20T00:11:15;30.05;;;18.33;;
35612;SDS011;22054;51.646;7.078;2022-11-20T00:16:12;31.63;;;16.48;;
35612;SDS011;22054;51.646;7.078;2022-11-20T00:18:43;26.63;;;16.27;;
35612;SDS011;22054;51.646;7.078;2022-11-20T00:21:12;28.88;;;18.55;;
35612;SDS011;22054;51.646;7.078;2022-11-20T00:23:44;25.45;;;16.17;;
35612;SDS011;22054;51.646;7.078;2022-11-20T00:26:11;28.63;;;17.58;;
35612;SDS011;22054;51.646;7.078;2022-11-20T00:28:39;30.80;;;17.85;;
35612;SDS011;22054;51.646;7.078;2022-11-20T00:31:11;31.63;;;16.60;;
35612;SDS011;22054;51.646;7.078;2022-11-20T00:33:39;28.55;;;17.05;;
35612;SDS011;22054;51.646;7.078;2022-11-20T00:36:07;28.92;;;17.77;;
35612;SDS011;22054;51.646;7.078;2022-11-20T00:38:35;26.75;;;16.75;;
35612;SDS011;22054;51.646;7.078;2022-11-20T00:41:06;28.60;;;16.95;;
35612;SDS011;22054;51.646;7.078;2022-11-20T00:46:02;26.65;;;15.32;;
35612;SDS011;22054;51.646;7.078;2022-11-20T00:48:35;25.83;;;15.63;;
35612;SDS011;22054;51.646;7.078;2022-11-20T00:51:01;28.35;;;17.70;;
35612;SDS011;22054;51.646;7.078;2022-11-20T00:53:27;30.60;;;18.15;;
35612;SDS011;22054;51.646;7.078;2022-11-20T00:55:54;33.10;;;17.95;;
35612;SDS011;22054;51.646;7.078;2022-11-20T00:58:32;28.95;;;16.33;;
35612;SDS011;22054;51.646;7.078;2022-11-20T01:01:05;36.43;;;17.30;;
35612;SDS011;22054;51.646;7.078;2022-11-20T01:03:43;32.90;;;17.15;;
35612;SDS011;22054;51.646;7.078;2022-11-20T01:06:12;28.45;;;17.10;;
35612;SDS011;22054;51.646;7.078;2022-11-20T01:08:42;32.15;;;17.75;;
35612;SDS011;22054;51.646;7.078;2022-11-20T01:11:12;37.33;;;17.40;;
35612;SDS011;22054;51.646;7.078;2022-11-20T01:13:41;30.75;;;17.67;;
35612;SDS011;22054;51.646;7.078;2022-11-20T01:18:43;29.05;;;16.80;;
35612;SDS011;22054;51.646;7.078;2022-11-20T01:21:15;28.25;;;17.27;;
35612;SDS011;22054;51.646;7.078;2022-11-20T01:23:47;25.50;;;16.08;;
35612;SDS011;22054;51.646;7.078;2022-11-20T01:26:18;26.50;;;16.65;;
35612;SDS011;22054;51.646;7.078;2022-11-20T01:28:49;27.27;;;16.75;;
35612;SDS011;22054;51.646;7.078;2022-11-20T01:31:16;28.73;;;17.02;;
35612;SDS011;22054;51.646;7.078;2022-11-20T01:33:49;30.83;;;17.30;;
35612;SDS011;22054;51.646;7.078;2022-11-20T01:36:18;31.58;;;17.58;;
35612;SDS011;22054;51.646;7.078;2022-11-20T01:38:46;28.30;;;16.60;;
35612;SDS011;22054;51.646;7.078;2022-11-20T01:41:15;28.75;;;16.77;;
35612;SDS011;22054;51.646;7.078;2022-11-20T01:44:01;28.27;;;15.85;;
35612;SDS011;22054;51.646;7.078;2022-11-20T01:46:28;28.33;;;16.00;;
35612;SDS011;22054;51.646;7.078;2022-11-20T01:49:04;30.58;;;16.48;;
35612;SDS011;22054;51.646;7.078;2022-11-20T01:51:42;32.83;;;18.67;;
35612;SDS011;22054;51.646;7.078;2022-11-20T01:54:17;30.00;;;16.88;;
35612;SDS011;22054;51.646;7.078;2022-11-20T01:56:51;28.20;;;16.58;;
35612;SDS011;22054;51.646;7.078;2022-11-20T01:59:22;30.60;;;17.35;;
35612;SDS011;22054;51.646;7.078;2022-11-20T02:01:50;30.35;;;15.82;;
35612;SDS011;22054;51.646;7.078;2022-11-20T02:04:16;29.42;;;17.35;;
35612;SDS011;22054;51.646;7.078;2022-11-20T02:06:43;33.10;;;19.23;;
35612;SDS011;22054;51.646;7.078;2022-11-20T02:09:17;29.48;;;16.45;;
35612;SDS011;22054;51.646;7.078;2022-11-20T02:11:42;27.98;;;15.60;;
35612;SDS011;22054;51.646;7.078;2022-11-20T02:14:08;29.05;;;17.10;;
35612;SDS011;22054;51.646;7.078;2022-11-20T02:16:35;26.05;;;16.27;;
35612;SDS011;22054;51.646;7.078;2022-11-20T02:19:06;30.83;;;17.52;;
35612;SDS011;22054;51.646;7.078;2022-11-20T02:22:00;32.58;;;17.70;;
35612;SDS011;22054;51.646;7.078;2022-11-20T02:24:31;26.85;;;17.08;;
35612;SDS011;22054;51.646;7.078;2022-11-20T02:26:58;30.67;;;17.17;;
35612;SDS011;22054;51.646;7.078;2022-11-20T02:29:38;28.00;;;16.88;;
35612;SDS011;22054;51.646;7.078;2022-11-20T02:32:35;29.90;;;17.30;;
35612;SDS011;22054;51.646;7.078;2022-11-20T02:35:07;25.80;;;17.42;;
35612;SDS011;22054;51.646;7.078;2022-11-20T02:37:45;31.25;;;18.02;;
35612;SDS011;22054;51.646;7.078;2022-11-20T02:40:15;24.83;;;15.30;;
35612;SDS011;22054;51.646;7.078;2022-11-20T02:42:41;26.95;;;16.80;;
35612;SDS011;22054;51.646;7.078;2022-11-20T02:45:07;30.85;;;17.35;;
35612;SDS011;22054;51.646;7.078;2022-11-20T02:47:33;26.67;;;16.33;;
35612;SDS011;22054;51.646;7.078;2022-11-20T02:49:59;28.58;;;16.65;;
35612;SDS011;22054;51.646;7.078;2022-11-20T02:52:28;32.97;;;18.07;;
35612;SDS011;22054;51.646;7.078;2022-11-20T02:54:54;28.30;;;16.85;;
35612;SDS011;22054;51.646;7.078;2022-11-20T02:57:20;28.38;;;16.83;;
35612;SDS011;22054;51.646;7.078;2022-11-20T02:59:45;28.27;;;16.65;;
35612;SDS011;22054;51.646;7.078;2022-11-20T03:02:14;31.13;;;17.65;;
35612;SDS011;22054;51.646;7.078;2022-11-20T03:04:40;29.30;;;17.00;;
35612;SDS011;22054;51.646;7.078;2022-11-20T03:07:07;29.80;;;18.02;;
35612;SDS011;22054;51.646;7.078;2022-11-20T03:09:33;27.17;;;17.05;;
35612;SDS011;22054;51.646;7.078;2022-11-20T03:11:59;31.85;;;18.33;;
35612;SDS011;22054;51.646;7.078;2022-11-20T03:14:24;29.60;;;17.33;;
35612;SDS011;22054;51.646;7.078;2022-11-20T03:16:50;33.20;;;17.42;;
35612;SDS011;22054;51.646;7.078;2022-11-20T03:19:16;31.77;;;17.33;;
35612;SDS011;22054;51.646;7.078;2022-11-20T03:21:44;28.85;;;18.05;;
35612;SDS011;22054;51.646;7.078;2022-11-20T03:24:10;31.70;;;18.33;;
35612;SDS011;22054;51.646;7.078;2022-11-20T03:26:35;30.00;;;18.10;;
35612;SDS011;22054;51.646;7.078;2022-11-20T03:29:02;31.10;;;18.65;;
35612;SDS011;22054;51.646;7.078;2022-11-20T03:31:33;34.35;;;18.48;;
35612;SDS011;22054;51.646;7.078;2022-11-20T03:34:08;29.83;;;18.58;;
35612;SDS011;22054;51.646;7.078;2022-11-20T03:36:39;30.60;;;19.92;;
35612;SDS011;22054;51.646;7.078;2022-11-20T03:39:06;27.50;;;19.13;;
35612;SDS011;22054;51.646;7.078;2022-11-20T03:41:36;31.58;;;20.52;;
35612;SDS011;22054;51.646;7.078;2022-11-20T03:44:06;31.23;;;21.42;;
35612;SDS011;22054;51.646;7.078;2022-11-20T03:46:35;33.08;;;21.88;;
35612;SDS011;22054;51.646;7.078;2022-11-20T03:49:01;34.25;;;24.00;;
35612;SDS011;22054;51.646;7.078;2022-11-20T03:51:31;31.38;;;19.67;;
35612;SDS011;22054;51.646;7.078;2022-11-20T03:54:03;30.65;;;19.40;;
35612;SDS011;22054;51.646;7.078;2022-11-20T03:56:33;32.72;;;19.67;;
35612;SDS011;22054;51.646;7.078;2022-11-20T03:59:01;36.03;;;23.35;;
35612;SDS011;22054;51.646;7.078;2022-11-20T04:01:29;29.48;;;21.83;;
35612;SDS011;22054;51.646;7.078;2022-11-20T04:03:57;33.72;;;20.88;;
35612;SDS011;22054;51.646;7.078;2022-11-20T04:06:24;31.45;;;22.45;;
35612;SDS011;22054;51.646;7.078;2022-11-20T04:08:56;30.40;;;23.58;;
35612;SDS011;22054;51.646;7.078;2022-11-20T04:11:23;28.63;;;20.73;;
35612;SDS011;22054;51.646;7.078;2022-11-20T04:13:56;32.53;;;23.40;;
35612;SDS011;22054;51.646;7.078;2022-11-20T04:16:25;35.45;;;23.08;;
35612;SDS011;22054;51.646;7.078;2022-11-20T04:18:57;29.23;;;23.42;;
35612;SDS011;22054;51.646;7.078;2022-11-20T04:21:25;33.42;;;22.70;;
35612;SDS011;22054;51.646;7.078;2022-11-20T04:23:52;30.63;;;19.95;;
35612;SDS011;22054;51.646;7.078;2022-11-20T04:26:19;34.33;;;20.67;;
35612;SDS011;22054;51.646;7.078;2022-11-20T04:28:46;35.75;;;22.95;;
35612;SDS011;22054;51.646;7.078;2022-11-20T04:31:16;30.17;;;20.95;;
35612;SDS011;22054;51.646;7.078;2022-11-20T04:33:44;31.35;;;19.60;;
35612;SDS011;22054;51.646;7.078;2022-11-20T04:36:11;31.45;;;19.27;;
35612;SDS011;22054;51.646;7.078;2022-11-20T04:38:39;37.00;;;19.50;;
35612;SDS011;22054;51.646;7.078;2022-11-20T04:41:06;32.75;;;19.75;;
35612;SDS011;22054;51.646;7.078;2022-11-20T04:43:35;28.70;;;19.75;;
35612;SDS011;22054;51.646;7.078;2022-11-20T04:46:00;32.35;;;26.40;;
35612;SDS011;22054;51.646;7.078;2022-11-20T04:48:27;34.53;;;25.75;;
35612;SDS011;22054;51.646;7.078;2022-11-20T04:50:54;33.25;;;19.35;;
35612;SDS011;22054;51.646;7.078;2022-11-20T04:53:20;31.83;;;18.00;;
35612;SDS011;22054;51.646;7.078;2022-11-20T04:55:47;29.73;;;16.25;;
35612;SDS011;22054;51.646;7.078;2022-11-20T04:58:13;32.03;;;16.90;;
35612;SDS011;22054;51.646;7.078;2022-11-20T05:00:40;28.27;;;18.02;;
35612;SDS011;22054;51.646;7.078;2022-11-20T05:03:05;30.73;;;18.13;;
35612;SDS011;22054;51.646;7.078;2022-11-20T05:05:33;30.95;;;17.02;;
35612;SDS011;22054;51.646;7.078;2022-11-20T05:07:59;30.08;;;17.92;;
35612;SDS011;22054;51.646;7.078;2022-11-20T05:10:25;31.65;;;18.42;;
35612;SDS011;22054;51.646;7.078;2022-11-20T05:12:51;30.45;;;17.42;;
35612;SDS011;22054;51.646;7.078;2022-11-20T05:15:17;30.92;;;18.02;;
35612;SDS011;22054;51.646;7.078;2022-11-20T05:17:47;32.55;;;18.10;;
35612;SDS011;22054;51.646;7.078;2022-11-20T05:20:17;29.40;;;17.67;;
35612;SDS011;22054;51.646;7.078;2022-11-20T05:22:43;30.88;;;18.92;;
35612;SDS011;22054;51.646;7.078;2022-11-20T05:25:10;32.50;;;18.48;;
35612;SDS011;22054;51.646;7.078;2022-11-20T05:27:36;27.98;;;17.67;;
35612;SDS011;22054;51.646;7.078;2022-11-20T05:30:05;29.45;;;17.73;;
35612;SDS011;22054;51.646;7.078;2022-11-20T05:32:32;30.25;;;16.63;;
35612;SDS011;22054;51.646;7.078;2022-11-20T05:34:58;31.58;;;17.77;;
35612;SDS011;22054;51.646;7.078;2022-11-20T05:37:24;28.70;;;17.15;;
35612;SDS011;22054;51.646;7.078;2022-11-20T05:39:49;26.80;;;17.77;;
35612;SDS011;22054;51.646;7.078;2022-11-20T05:42:15;31.00;;;18.60;;
35612;SDS011;22054;51.646;7.078;2022-11-20T05:44:56;28.70;;;17.77;;
35612;SDS011;22054;51.646;7.078;2022-11-20T05:47:28;28.48;;;18.42;;
35612;SDS011;22054;51.646;7.078;2022-11-20T05:52:23;30.10;;;16.52;;
35612;SDS011;22054;51.646;7.078;2022-11-20T05:54:48;31.63;;;18.15;;
35612;SDS011;22054;51.646;7.078;2022-11-20T05:57:14;29.52;;;17.42;;
35612;SDS011;22054;51.646;7.078;2022-11-20T05:59:40;32.20;;;18.20;;
35612;SDS011;22054;51.646;7.078;2022-11-20T06:02:06;31.05;;;19.23;;
35612;SDS011;22054;51.646;7.078;2022-11-20T06:04:31;28.00;;;17.38;;
35612;SDS011;22054;51.646;7.078;2022-11-20T06:06:57;30.80;;;18.75;;
35612;SDS011;22054;51.646;7.078;2022-11-20T06:09:23;31.05;;;18.02;;
35612;SDS011;22054;51.646;7.078;2022-11-20T06:11:49;34.20;;;19.20;;
35612;SDS011;22054;51.646;7.078;2022-11-20T06:14:14;32.35;;;19.20;;
35612;SDS011;22054;51.646;7.078;2022-11-20T06:16:40;32.00;;;18.85;;
35612;SDS011;22054;51.646;7.078;2022-11-20T06:19:06;31.60;;;18.70;;
35612;SDS011;22054;51.646;7.078;2022-11-20T06:21:31;30.50;;;19.30;;
35612;SDS011;22054;51.646;7.078;2022-11-20T06:23:57;29.10;;;18.25;;
35612;SDS011;22054;51.646;7.078;2022-11-20T06:26:24;32.28;;;17.98;;
35612;SDS011;22054;51.646;7.078;2022-11-20T06:28:52;34.00;;;19.52;;
35612;SDS011;22054;51.646;7.078;2022-11-20T06:31:21;29.73;;;17.45;;
35612;SDS011;22054;51.646;7.078;2022-11-20T06:33:49;31.27;;;18.85;;
35612;SDS011;22054;51.646;7.078;2022-11-20T06:36:17;31.52;;;19.13;;
35612;SDS011;22054;51.646;7.078;2022-11-20T06:38:45;45.47;;;18.83;;
35612;SDS011;22054;51.646;7.078;2022-11-20T06:41:12;30.85;;;18.90;;
35612;SDS011;22054;51.646;7.078;2022-11-20T06:43:50;34.95;;;19.38;;
35612;SDS011;22054;51.646;7.078;2022-11-20T06:46:19;30.30;;;18.05;;
35612;SDS011;22054;51.646;7.078;2022-11-20T06:48:46;31.85;;;18.98;;
35612;SDS011;22054;51.646;7.078;2022-11-20T06:51:13;32.92;;;19.63;;
35612;SDS011;22054;51.646;7.078;2022-11-20T06:53:42;29.33;;;17.85;;
35612;SDS011;22054;51.646;7.078;2022-11-20T06:56:07;38.00;;;20.60;;
35612;SDS011;22054;51.646;7.078;2022-11-20T06:58:34;39.20;;;20.42;;
35612;SDS011;22054;51.646;7.078;2022-11-20T07:01:10;39.00;;;19.27;;
35612;SDS011;22054;51.646;7.078;2022-11-20T07:03:38;33.63;;;19.55;;
35612;SDS011;22054;51.646;7.078;2022-11-20T07:06:04;36.05;;;20.02;;
35612;SDS011;22054;51.646;7.078;2022-11-20T07:08:31;35.85;;;20.33;;
35612;SDS011;22054;51.646;7.078;2022-11-20T07:11:00;34.25;;;20.50;;
35612;SDS011;22054;51.646;7.078;2022-11-20T07:13:29;34.15;;;20.05;;
35612;SDS011;22054;51.646;7.078;2022-11-20T07:16:00;34.65;;;21.65;;
35612;SDS011;22054;51.646;7.078;2022-11-20T07:18:27;37.58;;;19.67;;
35612;SDS011;22054;51.646;7.078;2022-11-20T07:20:54;38.97;;;21.50;;
35612;SDS011;22054;51.646;7.078;2022-11-20T07:23:21;36.50;;;21.48;;
35612;SDS011;22054;51.646;7.078;2022-11-20T07:25:47;36.03;;;20.58;;
35612;SDS011;22054;51.646;7.078;2022-11-20T07:28:12;35.10;;;21.08;;
35612;SDS011;22054;51.646;7.078;2022-11-20T07:30:38;31.50;;;20.90;;
35612;SDS011;22054;51.646;7.078;2022-11-20T07:33:04;41.45;;;23.08;;
35612;SDS011;22054;51.646;7.078;2022-11-20T07:35:30;35.45;;;21.35;;
35612;SDS011;22054;51.646;7.078;2022-11-20T07:37:55;43.88;;;23.90;;
35612;SDS011;22054;51.646;7.078;2022-11-20T07:40:21;36.40;;;23.17;;
35612;SDS011;22054;51.646;7.078;2022-11-20T07:42:51;52.95;;;29.17;;
35612;SDS011;22054;51.646;7.078;2022-11-20T07:45:26;46.92;;;27.10;;
35612;SDS011;22054;51.646;7.078;2022-11-20T07:47:52;49.10;;;28.83;;
35612;SDS011;22054;51.646;7.078;2022-11-20T07:53:03;49.45;;;29.80;;
35612;SDS011;22054;51.646;7.078;2022-11-20T07:55:32;51.33;;;30.70;;
35612;SDS011;22054;51.646;7.078;2022-11-20T07:57:58;55.95;;;33.05;;
35612;SDS011;22054;51.646;7.078;2022-11-20T08:00:25;51.95;;;29.92;;
35612;SDS011;22054;51.646;7.078;2022-11-20T08:02:52;56.58;;;31.80;;
35612;SDS011;22054;51.646;7.078;2022-11-20T08:05:18;53.08;;;30.25;;
35612;SDS011;22054;51.646;7.078;2022-11-20T08:07:44;108.97;;;68.82;;
35612;SDS011;22054;51.646;7.078;2022-11-20T08:10:11;70.97;;;46.53;;
35612;SDS011;22054;51.646;7.078;2022-11-20T08:12:43;60.83;;;35.78;;
35612;SDS011;22054;51.646;7.078;2022-11-20T08:15:33;57.72;;;36.78;;
35612;SDS011;22054;51.646;7.078;2022-11-20T08:18:00;54.33;;;32.17;;
35612;SDS011;22054;51.646;7.078;2022-11-20T08:20:28;60.17;;;32.47;;
35612;SDS011;22054;51.646;7.078;2022-11-20T08:22:57;52.13;;;29.63;;
35612;SDS011;22054;51.646;7.078;2022-11-20T08:25:31;44.63;;;27.25;;
35612;SDS011;22054;51.646;7.078;2022-11-20T08:27:59;42.17;;;27.02;;
35612;SDS011;22054;51.646;7.078;2022-11-20T08:30:27;45.70;;;26.33;;
35612;SDS011;22054;51.646;7.078;2022-11-20T08:32:53;37.17;;;23.08;;
35612;SDS011;22054;51.646;7.078;2022-11-20T08:35:23;39.55;;;23.38;;
35612;SDS011;22054;51.646;7.078;2022-11-20T08:37:48;40.25;;;23.45;;
35612;SDS011;22054;51.646;7.078;2022-11-20T08:40:14;38.45;;;22.88;;
35612;SDS011;22054;51.646;7.078;2022-11-20T08:42:50;37.40;;;23.90;;
35612;SDS011;22054;51.646;7.078;2022-11-20T08:45:16;39.85;;;23.48;;
35612;SDS011;22054;51.646;7.078;2022-11-20T08:47:44;42.28;;;25.13;;
35612;SDS011;22054;51.646;7.078;2022-11-20T08:50:11;35.78;;;23.88;;
35612;SDS011;22054;51.646;7.078;2022-11-20T08:52:41;40.53;;;23.30;;
35612;SDS011;22054;51.646;7.078;2022-11-20T08:55:12;43.72;;;25.08;;
35612;SDS011;22054;51.646;7.078;2022-11-20T08:57:38;42.10;;;24.67;;
35612;SDS011;22054;51.646;7.078;2022-11-20T09:00:05;40.33;;;24.98;;
35612;SDS011;22054;51.646;7.078;2022-11-20T09:02:33;33.97;;;22.70;;
35612;SDS011;22054;51.646;7.078;2022-11-20T09:04:59;36.13;;;21.60;;
35612;SDS011;22054;51.646;7.078;2022-11-20T09:07:33;32.35;;;21.00;;
35612;SDS011;22054;51.646;7.078;2022-11-20T09:10:02;33.17;;;20.05;;
35612;SDS011;22054;51.646;7.078;2022-11-20T09:12:32;34.08;;;21.27;;
35612;SDS011;22054;51.646;7.078;2022-11-20T09:15:01;31.63;;;21.58;;
35612;SDS011;22054;51.646;7.078;2022-11-20T09:17:26;32.28;;;20.13;;
35612;SDS011;22054;51.646;7.078;2022-11-20T09:19:52;31.52;;;20.63;;
35612;SDS011;22054;51.646;7.078;2022-11-20T09:22:18;35.30;;;22.50;;
35612;SDS011;22054;51.646;7.078;2022-11-20T09:25:02;37.45;;;24.30;;
35612;SDS011;22054;51.646;7.078;2022-11-20T09:27:31;30.08;;;21.67;;
35612;SDS011;22054;51.646;7.078;2022-11-20T09:30:14;33.53;;;22.50;;
35612;SDS011;22054;51.646;7.078;2022-11-20T09:36:05;32.63;;;22.38;;
35612;SDS011;22054;51.646;7.078;2022-11-20T09:38:36;32.72;;;22.13;;
35612;SDS011;22054;51.646;7.078;2022-11-20T09:44:30;36.03;;;23.27;;
35612;SDS011;22054;51.646;7.078;2022-11-20T09:50:43;37.90;;;24.97;;
35612;SDS011;22054;51.646;7.078;2022-11-20T09:57:35;33.90;;;22.85;;
35612;SDS011;22054;51.646;7.078;2022-11-20T10:00:04;33.22;;;21.15;;
35612;SDS011;22054;51.646;7.078;2022-11-20T10:03:06;36.72;;;23.25;;
35612;SDS011;22054;51.646;7.078;2022-11-20T10:05:52;33.05;;;22.00;;
35612;SDS011;22054;51.646;7.078;2022-11-20T10:31:16;25.85;;;21.40;;
35612;SDS011;22054;51.646;7.078;2022-11-20T10:34:16;34.10;;;24.70;;
35612;SDS011;22054;51.646;7.078;2022-11-20T10:40:20;36.03;;;26.35;;
35612;SDS011;22054;51.646;7.078;2022-11-20T10:46:10;34.50;;;24.15;;
35612;SDS011;22054;51.646;7.078;2022-11-20T10:48:52;32.28;;;24.33;;
35612;SDS011;22054;51.646;7.078;2022-11-20T11:00:16;39.92;;;28.27;;
35612;SDS011;22054;51.646;7.078;2022-11-20T11:02:44;37.05;;;27.08;;
35612;SDS011;22054;51.646;7.078;2022-11-20T11:07:46;34.28;;;25.17;;
35612;SDS011;22054;51.646;7.078;2022-11-20T11:10:17;37.05;;;23.65;;
35612;SDS011;22054;51.646;7.078;2022-11-20T11:12:48;35.20;;;26.98;;
35612;SDS011;22054;51.646;7.078;2022-11-20T11:17:53;30.38;;;25.85;;
35612;SDS011;22054;51.646;7.078;2022-11-20T11:20:23;37.10;;;28.40;;
35612;SDS011;22054;51.646;7.078;2022-11-20T11:22:52;35.30;;;24.85;;
35612;SDS011;22054;51.646;7.078;2022-11-20T11:25:27;34.28;;;24.45;;
35612;SDS011;22054;51.646;7.078;2022-11-20T11:28:18;27.25;;;21.48;;
35612;SDS011;22054;51.646;7.078;2022-11-20T11:30:47;25.95;;;21.23;;
35612;SDS011;22054;51.646;7.078;2022-11-20T11:33:22;28.30;;;22.98;;
35612;SDS011;22054;51.646;7.078;2022-11-20T11:35:54;28.98;;;22.13;;
35612;SDS011;22054;51.646;7.078;2022-11-20T11:38:37;28.85;;;20.95;;
35612;SDS011;22054;51.646;7.078;2022-11-20T11:41:09;30.98;;;21.67;;
35612;SDS011;22054;51.646;7.078;2022-11-20T11:43:48;34.70;;;23.55;;
35612;SDS011;22054;51.646;7.078;2022-11-20T11:46:39;30.88;;;24.17;;
35612;SDS011;22054;51.646;7.078;2022-11-20T11:49:19;29.90;;;23.80;;
35612;SDS011;22054;51.646;7.078;2022-11-20T12:00:30;29.92;;;23.45;;
35612;SDS011;22054;51.646;7.078;2022-11-20T12:05:57;31.40;;;22.92;;
35612;SDS011;22054;51.646;7.078;2022-11-20T12:08:49;30.58;;;24.52;;
35612;SDS011;22054;51.646;7.078;2022-11-20T12:14:45;29.70;;;23.65;;
35612;SDS011;22054;51.646;7.078;2022-11-20T12:17:15;32.15;;;24.48;;
35612;SDS011;22054;51.646;7.078;2022-11-20T12:19:42;34.15;;;24.55;;
35612;SDS011;22054;51.646;7.078;2022-11-20T12:22:17;31.00;;;24.23;;
35612;SDS011;22054;51.646;7.078;2022-11-20T12:25:19;32.42;;;23.90;;
35612;SDS011;22054;51.646;7.078;2022-11-20T12:37:21;32.22;;;24.23;;
35612;SDS011;22054;51.646;7.078;2022-11-20T12:39:56;29.65;;;23.05;;
35612;SDS011;22054;51.646;7.078;2022-11-20T12:46:00;36.53;;;26.00;;
35612;SDS011;22054;51.646;7.078;2022-11-20T12:55:20;39.40;;;25.25;;
35612;SDS011;22054;51.646;7.078;2022-11-20T13:01:06;36.92;;;27.17;;
35612;SDS011;22054;51.646;7.078;2022-11-20T13:04:08;34.40;;;26.55;;
35612;SDS011;22054;51.646;7.078;2022-11-20T13:06:44;29.85;;;25.17;;
35612;SDS011;22054;51.646;7.078;2022-11-20T13:09:14;36.00;;;25.83;;
35612;SDS011;22054;51.646;7.078;2022-11-20T13:11:44;36.58;;;27.42;;
35612;SDS011;22054;51.646;7.078;2022-11-20T13:14:36;38.88;;;27.75;;
35612;SDS011;22054;51.646;7.078;2022-11-20T13:17:15;42.97;;;28.67;;
35612;SDS011;22054;51.646;7.078;2022-11-20T13:22:26;43.95;;;28.00;;
35612;SDS011;22054;51.646;7.078;2022-11-20T13:24:54;36.92;;;26.92;;
35612;SDS011;22054;51.646;7.078;2022-11-20T13:27:22;40.40;;;26.80;;
35612;SDS011;22054;51.646;7.078;2022-11-20T13:29:59;42.67;;;28.20;;
35612;SDS011;22054;51.646;7.078;2022-11-20T13:32:47;44.25;;;28.88;;
35612;SDS011;22054;51.646;7.078;2022-11-20T13:35:34;39.92;;;27.65;;
35612;SDS011;22054;51.646;7.078;2022-11-20T13:40:36;39.80;;;27.48;;
35612;SDS011;22054;51.646;7.078;2022-11-20T13:43:22;30.95;;;23.75;;
35612;SDS011;22054;51.646;7.078;2022-11-20T13:46:00;34.20;;;25.15;;
35612;SDS011;22054;51.646;7.078;2022-11-20T13:48:33;30.55;;;22.30;;
35612;SDS011;22054;51.646;7.078;2022-11-20T13:51:15;32.28;;;24.45;;
35612;SDS011;22054;51.646;7.078;2022-11-20T13:57:27;38.42;;;24.38;;
35612;SDS011;22054;51.646;7.078;2022-11-20T14:02:59;37.58;;;24.05;;
35612;SDS011;22054;51.646;7.078;2022-11-20T14:05:40;40.22;;;25.65;;
35612;SDS011;22054;51.646;7.078;2022-11-20T14:11:21;39.53;;;25.90;;
35612;SDS011;22054;51.646;7.078;2022-11-20T14:14:00;37.83;;;25.63;;
35612;SDS011;22054;51.646;7.078;2022-11-20T14:16:30;42.72;;;26.58;;
35612;SDS011;22054;51.646;7.078;2022-11-20T14:21:44;39.92;;;24.83;;
35612;SDS011;22054;51.646;7.078;2022-11-20T14:24:12;40.72;;;27.02;;
35612;SDS011;22054;51.646;7.078;2022-11-20T14:26:46;38.05;;;24.67;;
35612;SDS011;22054;51.646;7.078;2022-11-20T14:29:16;39.13;;;24.30;;
35612;SDS011;22054;51.646;7.078;2022-11-20T14:31:45;38.92;;;24.15;;
35612;SDS011;22054;51.646;7.078;2022-11-20T14:34:17;34.88;;;21.13;;
35612;SDS011;22054;51.646;7.078;2022-11-20T14:36:46;39.92;;;23.10;;
35612;SDS011;22054;51.646;7.078;2022-11-20T14:39:19;41.05;;;23.48;;
35612;SDS011;22054;51.646;7.078;2022-11-20T14:41:50;39.38;;;23.60;;
35612;SDS011;22054;51.646;7.078;2022-11-20T14:44:17;37.33;;;24.33;;
35612;SDS011;22054;51.646;7.078;2022-11-20T14:46:51;44.10;;;25.10;;
35612;SDS011;22054;51.646;7.078;2022-11-20T14:49:17;42.25;;;25.88;;
35612;SDS011;22054;51.646;7.078;2022-11-20T14:51:43;43.33;;;26.95;;
35612;SDS011;22054;51.646;7.078;2022-11-20T14:54:12;44.58;;;26.27;;
35612;SDS011;22054;51.646;7.078;2022-11-20T14:56:53;43.55;;;25.45;;
35612;SDS011;22054;51.646;7.078;2022-11-20T14:59:29;39.85;;;23.13;;
35612;SDS011;22054;51.646;7.078;2022-11-20T15:02:00;37.67;;;23.45;;
35612;SDS011;22054;51.646;7.078;2022-11-20T15:04:49;37.38;;;22.42;;
35612;SDS011;22054;51.646;7.078;2022-11-20T15:07:25;37.05;;;22.55;;
35612;SDS011;22054;51.646;7.078;2022-11-20T15:12:38;37.08;;;23.70;;
35612;SDS011;22054;51.646;7.078;2022-11-20T15:15:15;35.80;;;23.00;;
35612;SDS011;22054;51.646;7.078;2022-11-20T15:17:54;40.45;;;24.30;;
35612;SDS011;22054;51.646;7.078;2022-11-20T15:20:20;39.58;;;23.35;;
35612;SDS011;22054;51.646;7.078;2022-11-20T15:22:51;32.67;;;21.27;;
35612;SDS011;22054;51.646;7.078;2022-11-20T15:25:17;35.50;;;20.98;;
35612;SDS011;22054;51.646;7.078;2022-11-20T15:27:44;38.70;;;23.38;;
35612;SDS011;22054;51.646;7.078;2022-11-20T15:30:15;36.67;;;22.08;;
35612;SDS011;22054;51.646;7.078;2022-11-20T15:32:44;38.55;;;23.27;;
35612;SDS011;22054;51.646;7.078;2022-11-20T15:35:11;38.42;;;23.98;;
35612;SDS011;22054;51.646;7.078;2022-11-20T15:37:38;42.42;;;24.13;;
35612;SDS011;22054;51.646;7.078;2022-11-20T15:40:04;35.15;;;22.95;;
35612;SDS011;22054;51.646;7.078;2022-11-20T15:42:31;36.85;;;22.90;;
35612;SDS011;22054;51.646;7.078;2022-11-20T15:44:58;31.95;;;21.90;;
35612;SDS011;22054;51.646;7.078;2022-11-20T15:47:25;36.60;;;23.40;;
35612;SDS011;22054;51.646;7.078;2022-11-20T15:49:55;38.28;;;23.10;;
35612;SDS011;22054;51.646;7.078;2022-11-20T15:52:21;38.55;;;23.27;;
35612;SDS011;22054;51.646;7.078;2022-11-20T15:54:47;38.42;;;21.80;;
35612;SDS011;22054;51.646;7.078;2022-11-20T15:57:13;37.50;;;23.17;;
35612;SDS011;22054;51.646;7.078;2022-11-20T15:59:42;34.92;;;21.70;;
35612;SDS011;22054;51.646;7.078;2022-11-20T16:02:26;36.88;;;23.05;;
35612;SDS011;22054;51.646;7.078;2022-11-20T16:04:51;39.15;;;24.27;;
35612;SDS011;22054;51.646;7.078;2022-11-20T16:07:17;40.47;;;23.75;;
35612;SDS011;22054;51.646;7.078;2022-11-20T16:09:43;39.40;;;24.23;;
35612;SDS011;22054;51.646;7.078;2022-11-20T16:12:09;40.63;;;25.30;;
35612;SDS011;22054;51.646;7.078;2022-11-20T16:14:55;42.53;;;24.30;;
35612;SDS011;22054;51.646;7.078;2022-11-20T16:17:39;40.30;;;23.40;;
35612;SDS011;22054;51.646;7.078;2022-11-20T16:20:09;39.78;;;24.98;;
35612;SDS011;22054;51.646;7.078;2022-11-20T16:22:39;42.20;;;25.17;;
35612;SDS011;22054;51.646;7.078;2022-11-20T16:25:04;44.17;;;25.58;;
35612;SDS011;22054;51.646;7.078;2022-11-20T16:27:30;40.70;;;24.42;;
35612;SDS011;22054;51.646;7.078;2022-11-20T16:29:56;43.83;;;26.35;;
35612;SDS011;22054;51.646;7.078;2022-11-20T16:32:22;42.47;;;26.23;;
35612;SDS011;22054;51.646;7.078;2022-11-20T16:34:48;39.47;;;24.50;;
35612;SDS011;22054;51.646;7.078;2022-11-20T16:37:14;40.33;;;24.88;;
35612;SDS011;22054;51.646;7.078;2022-11-20T16:39:40;42.05;;;25.52;;
35612;SDS011;22054;51.646;7.078;2022-11-20T16:42:06;50.17;;;27.05;;
35612;SDS011;22054;51.646;7.078;2022-11-20T16:44:32;45.50;;;26.73;;
35612;SDS011;22054;51.646;7.078;2022-11-20T16:46:58;41.40;;;26.63;;
35612;SDS011;22054;51.646;7.078;2022-11-20T16:49:24;44.03;;;26.05;;